sensor_id;sensor_type;location;lat;lon;timestamp;pressure;altitude;pressure_sealevel;temperature;humidity
72587;BME280;60621;49.576;11.024;2023-06-04T00:00:36;98504.41;;;14.26;43.66
72587;BME280;60621;49.576;11.024;2023-06-04T00:01:37;98501.41;;;14.39;43.18
72587;BME280;60621;49.576;11.024;2023-06-04T00:02:39;98502.25;;;14.53;43.02
72587;BME280;60621;49.576;11.024;2023-06-04T00:03:41;98502.63;;;14.55;42.92
72587;BME280;60621;49.576;11.024;2023-06-04T00:04:43;98503.66;;;14.33;43.21
72587;BME280;60621;49.576;11.024;2023-06-04T00:05:45;98508.06;;;14.00;43.94
72587;BME280;60621;49.576;11.024;2023-06-04T00:06:47;98503.03;;;13.77;45.34
72587;BME280;60621;49.576;11.024;2023-06-04T00:07:48;98498.81;;;13.69;45.58
72587;BME280;60621;49.576;11.024;2023-06-04T00:08:50;98493.78;;;13.53;45.78
72587;BME280;60621;49.576;11.024;2023-06-04T00:09:52;98500.28;;;13.67;45.92
72587;BME280;60621;49.576;11.024;2023-06-04T00:10:54;98502.44;;;13.47;45.55
72587;BME280;60621;49.576;11.024;2023-06-04T00:11:56;98502.09;;;13.52;46.01
72587;BME280;60621;49.576;11.024;2023-06-04T00:12:57;98497.28;;;13.72;45.81
72587;BME280;60621;49.576;11.024;2023-06-04T00:14:00;98500.75;;;13.79;45.44
72587;BME280;60621;49.576;11.024;2023-06-04T00:15:02;98494.47;;;14.05;44.36
72587;BME280;60621;49.576;11.024;2023-06-04T00:16:04;98493.38;;;14.17;44.30
72587;BME280;60621;49.576;11.024;2023-06-04T00:17:05;98493.38;;;14.17;44.11
72587;BME280;60621;49.576;11.024;2023-06-04T00:18:07;98483.91;;;14.23;43.48
72587;BME280;60621;49.576;11.024;2023-06-04T00:19:09;98484.53;;;13.95;43.88
72587;BME280;60621;49.576;11.024;2023-06-04T00:20:11;98483.97;;;13.61;44.56
72587;BME280;60621;49.576;11.024;2023-06-04T00:21:12;98482.09;;;13.65;44.91
72587;BME280;60621;49.576;11.024;2023-06-04T00:22:14;98482.38;;;13.46;45.97
72587;BME280;60621;49.576;11.024;2023-06-04T00:23:16;98479.97;;;13.26;46.00
72587;BME280;60621;49.576;11.024;2023-06-04T00:24:17;98478.78;;;13.24;45.77
72587;BME280;60621;49.576;11.024;2023-06-04T00:25:19;98480.81;;;12.97;46.63
72587;BME280;60621;49.576;11.024;2023-06-04T00:26:21;98479.69;;;12.98;46.63
72587;BME280;60621;49.576;11.024;2023-06-04T00:27:22;98475.78;;;13.25;46.74
72587;BME280;60621;49.576;11.024;2023-06-04T00:28:24;98476.06;;;13.17;45.89
72587;BME280;60621;49.576;11.024;2023-06-04T00:29:26;98470.69;;;13.06;46.27
72587;BME280;60621;49.576;11.024;2023-06-04T00:30:28;98475.53;;;12.97;46.46
72587;BME280;60621;49.576;11.024;2023-06-04T00:31:29;98471.78;;;13.05;46.42
72587;BME280;60621;49.576;11.024;2023-06-04T00:32:31;98476.59;;;12.89;46.57
72587;BME280;60621;49.576;11.024;2023-06-04T00:33:33;98478.53;;;12.95;46.54
72587;BME280;60621;49.576;11.024;2023-06-04T00:34:36;98476.34;;;13.04;46.25
72587;BME280;60621;49.576;11.024;2023-06-04T00:35:38;98468.47;;;13.12;46.12
72587;BME280;60621;49.576;11.024;2023-06-04T00:36:39;98462.56;;;13.29;45.43
72587;BME280;60621;49.576;11.024;2023-06-04T00:37:41;98468.25;;;13.31;45.30
72587;BME280;60621;49.576;11.024;2023-06-04T00:38:43;98477.34;;;13.33;45.68
72587;BME280;60621;49.576;11.024;2023-06-04T00:39:45;98471.47;;;13.10;45.59
72587;BME280;60621;49.576;11.024;2023-06-04T00:40:47;98479.63;;;13.31;46.11
72587;BME280;60621;49.576;11.024;2023-06-04T00:41:48;98480.09;;;13.44;45.63
72587;BME280;60621;49.576;11.024;2023-06-04T00:42:50;98481.97;;;13.47;45.48
72587;BME280;60621;49.576;11.024;2023-06-04T00:43:51;98482.47;;;13.67;45.22
72587;BME280;60621;49.576;11.024;2023-06-04T00:44:58;98484.66;;;13.51;45.25
72587;BME280;60621;49.576;11.024;2023-06-04T00:45:59;98480.94;;;13.59;45.16
72587;BME280;60621;49.576;11.024;2023-06-04T00:47:02;98480.47;;;13.46;45.81
72587;BME280;60621;49.576;11.024;2023-06-04T00:48:04;98478.31;;;13.15;45.64
72587;BME280;60621;49.576;11.024;2023-06-04T00:49:06;98480.13;;;13.03;45.58
72587;BME280;60621;49.576;11.024;2023-06-04T00:50:08;98482.72;;;13.00;45.71
72587;BME280;60621;49.576;11.024;2023-06-04T00:51:10;98478.34;;;13.18;45.51
72587;BME280;60621;49.576;11.024;2023-06-04T00:52:14;98478.84;;;12.90;45.35
72587;BME280;60621;49.576;11.024;2023-06-04T00:53:16;98476.59;;;12.89;45.92
72587;BME280;60621;49.576;11.024;2023-06-04T00:54:19;98476.66;;;12.99;45.84
72587;BME280;60621;49.576;11.024;2023-06-04T00:55:21;98483.59;;;13.15;45.47
72587;BME280;60621;49.576;11.024;2023-06-04T00:56:23;98484.09;;;12.83;45.76
72587;BME280;60621;49.576;11.024;2023-06-04T00:57:24;98483.47;;;12.97;46.50
72587;BME280;60621;49.576;11.024;2023-06-04T00:58:26;98490.09;;;13.21;45.50
72587;BME280;60621;49.576;11.024;2023-06-04T00:59:29;98488.31;;;13.32;45.40
72587;BME280;60621;49.576;11.024;2023-06-04T01:00:33;98485.88;;;13.13;45.43
72587;BME280;60621;49.576;11.024;2023-06-04T01:01:58;98487.81;;;12.75;46.32
72587;BME280;60621;49.576;11.024;2023-06-04T01:03:07;98492.19;;;12.97;46.45
72587;BME280;60621;49.576;11.024;2023-06-04T01:04:18;98488.91;;;13.15;46.26
72587;BME280;60621;49.576;11.024;2023-06-04T01:05:41;98491.41;;;12.97;46.25
72587;BME280;60621;49.576;11.024;2023-06-04T01:06:49;98487.75;;;12.68;46.68
72587;BME280;60621;49.576;11.024;2023-06-04T01:07:52;98496.25;;;12.91;46.60
72587;BME280;60621;49.576;11.024;2023-06-04T01:08:54;98491.75;;;12.92;46.73
72587;BME280;60621;49.576;11.024;2023-06-04T01:09:59;98495.75;;;12.75;46.76
72587;BME280;60621;49.576;11.024;2023-06-04T01:11:01;98499.56;;;12.81;45.89
72587;BME280;60621;49.576;11.024;2023-06-04T01:12:06;98498.81;;;12.80;46.16
72587;BME280;60621;49.576;11.024;2023-06-04T01:13:08;98491.91;;;12.69;46.80
72587;BME280;60621;49.576;11.024;2023-06-04T01:14:11;98500.03;;;12.87;46.82
72587;BME280;60621;49.576;11.024;2023-06-04T01:15:13;98500.88;;;12.98;46.70
72587;BME280;60621;49.576;11.024;2023-06-04T01:16:15;98494.53;;;13.06;46.10
72587;BME280;60621;49.576;11.024;2023-06-04T01:17:33;98496.25;;;12.91;46.80
72587;BME280;60621;49.576;11.024;2023-06-04T01:18:39;98495.56;;;12.57;46.31
72587;BME280;60621;49.576;11.024;2023-06-04T01:21:02;98490.84;;;12.40;47.26
72587;BME280;60621;49.576;11.024;2023-06-04T01:23:51;98492.53;;;12.21;47.66
72587;BME280;60621;49.576;11.024;2023-06-04T01:25:04;98492.44;;;12.48;47.99
72587;BME280;60621;49.576;11.024;2023-06-04T01:26:08;98493.31;;;12.59;46.89
72587;BME280;60621;49.576;11.024;2023-06-04T01:27:10;98492.69;;;12.36;47.47
72587;BME280;60621;49.576;11.024;2023-06-04T01:28:13;98492.69;;;12.36;48.03
72587;BME280;60621;49.576;11.024;2023-06-04T01:29:17;98496.19;;;12.13;47.82
72587;BME280;60621;49.576;11.024;2023-06-04T01:30:23;98492.22;;;11.96;48.13
72587;BME280;60621;49.576;11.024;2023-06-04T01:31:26;98493.22;;;11.88;48.69
72587;BME280;60621;49.576;11.024;2023-06-04T01:32:30;98494.72;;;11.63;49.25
72587;BME280;60621;49.576;11.024;2023-06-04T01:33:32;98489.09;;;11.64;49.67
72587;BME280;60621;49.576;11.024;2023-06-04T01:34:44;98491.44;;;11.69;49.28
72587;BME280;60621;49.576;11.024;2023-06-04T01:35:45;98489.03;;;11.61;49.50
72587;BME280;60621;49.576;11.024;2023-06-04T01:36:47;98490.56;;;11.62;49.87
72587;BME280;60621;49.576;11.024;2023-06-04T01:37:49;98486.38;;;11.84;49.55
72587;BME280;60621;49.576;11.024;2023-06-04T01:38:52;98488.63;;;12.12;48.70
72587;BME280;60621;49.576;11.024;2023-06-04T01:39:54;98495.19;;;11.95;48.72
72587;BME280;60621;49.576;11.024;2023-06-04T01:40:56;98490.97;;;11.90;49.06
72587;BME280;60621;49.576;11.024;2023-06-04T01:42:02;98493.59;;;12.17;48.84
72587;BME280;60621;49.576;11.024;2023-06-04T01:43:04;98490.47;;;12.41;47.98
72587;BME280;60621;49.576;11.024;2023-06-04T01:44:05;98491.66;;;12.44;48.07
72587;BME280;60621;49.576;11.024;2023-06-04T01:45:08;98486.41;;;12.17;48.55
72587;BME280;60621;49.576;11.024;2023-06-04T01:46:10;98493.81;;;12.04;48.78
72587;BME280;60621;49.576;11.024;2023-06-04T01:47:11;98496.44;;;12.04;48.89
72587;BME280;60621;49.576;11.024;2023-06-04T01:48:13;98491.41;;;11.92;49.56
72587;BME280;60621;49.576;11.024;2023-06-04T01:49:15;98498.25;;;11.70;50.07
72587;BME280;60621;49.576;11.024;2023-06-04T01:50:17;98492.94;;;11.70;49.96
72587;BME280;60621;49.576;11.024;2023-06-04T01:51:18;98495.66;;;11.74;49.78
72587;BME280;60621;49.576;11.024;2023-06-04T01:52:20;98493.97;;;11.62;50.09
72587;BME280;60621;49.576;11.024;2023-06-04T01:53:22;98504.84;;;11.57;50.77
72587;BME280;60621;49.576;11.024;2023-06-04T01:54:24;98504.75;;;11.50;51.01
72587;BME280;60621;49.576;11.024;2023-06-04T01:55:26;98506.06;;;11.63;50.64
72587;BME280;60621;49.576;11.024;2023-06-04T01:56:29;98499.25;;;11.62;50.51
72587;BME280;60621;49.576;11.024;2023-06-04T01:57:30;98499.94;;;11.82;50.34
72587;BME280;60621;49.576;11.024;2023-06-04T01:58:32;98505.94;;;12.09;49.92
72587;BME280;60621;49.576;11.024;2023-06-04T01:59:35;98499.97;;;12.12;49.43
72587;BME280;60621;49.576;11.024;2023-06-04T02:00:37;98499.53;;;12.07;49.59
72587;BME280;60621;49.576;11.024;2023-06-04T02:01:39;98500.91;;;11.97;49.51
72587;BME280;60621;49.576;11.024;2023-06-04T02:02:42;98499.34;;;11.96;50.02
72587;BME280;60621;49.576;11.024;2023-06-04T02:03:44;98497.84;;;11.95;49.87
72587;BME280;60621;49.576;11.024;2023-06-04T02:04:46;98505.03;;;11.71;50.70
72587;BME280;60621;49.576;11.024;2023-06-04T02:05:49;98504.59;;;11.66;50.96
72587;BME280;60621;49.576;11.024;2023-06-04T02:06:51;98503.44;;;11.63;50.81
72587;BME280;60621;49.576;11.024;2023-06-04T02:07:52;98498.22;;;11.44;51.07
72587;BME280;60621;49.576;11.024;2023-06-04T02:08:55;98504.16;;;11.37;51.55
72587;BME280;60621;49.576;11.024;2023-06-04T02:09:57;98504.31;;;11.21;52.38
72587;BME280;60621;49.576;11.024;2023-06-04T02:10:58;98503.94;;;11.23;52.08
72587;BME280;60621;49.576;11.024;2023-06-04T02:12:00;98504.84;;;11.34;51.55
72587;BME280;60621;49.576;11.024;2023-06-04T02:13:03;98501.75;;;11.51;51.52
72587;BME280;60621;49.576;11.024;2023-06-04T02:14:04;98502.00;;;11.69;51.25
72587;BME280;60621;49.576;11.024;2023-06-04T02:15:06;98506.31;;;11.54;50.95
72587;BME280;60621;49.576;11.024;2023-06-04T02:16:08;98508.28;;;11.61;51.10
72587;BME280;60621;49.576;11.024;2023-06-04T02:17:10;98509.50;;;11.67;50.87
72587;BME280;60621;49.576;11.024;2023-06-04T02:18:20;98507.03;;;11.51;51.36
72587;BME280;60621;49.576;11.024;2023-06-04T02:19:26;98505.78;;;11.68;51.29
72587;BME280;60621;49.576;11.024;2023-06-04T02:20:28;98505.31;;;11.89;50.83
72587;BME280;60621;49.576;11.024;2023-06-04T02:21:30;98509.34;;;12.06;50.19
72587;BME280;60621;49.576;11.024;2023-06-04T02:22:31;98508.59;;;12.09;50.32
72587;BME280;60621;49.576;11.024;2023-06-04T02:23:33;98509.28;;;12.02;50.51
72587;BME280;60621;49.576;11.024;2023-06-04T02:24:35;98512.56;;;11.92;50.71
72587;BME280;60621;49.576;11.024;2023-06-04T02:25:37;98509.16;;;11.92;51.31
72587;BME280;60621;49.576;11.024;2023-06-04T02:26:39;98502.69;;;11.89;51.03
72587;BME280;60621;49.576;11.024;2023-06-04T02:27:40;98505.47;;;12.00;50.84
72587;BME280;60621;49.576;11.024;2023-06-04T02:28:42;98511.19;;;11.79;50.49
72587;BME280;60621;49.576;11.024;2023-06-04T02:29:44;98508.25;;;11.58;51.13
72587;BME280;60621;49.576;11.024;2023-06-04T02:30:46;98511.78;;;11.42;52.00
72587;BME280;60621;49.576;11.024;2023-06-04T02:31:47;98505.13;;;11.25;52.43
72587;BME280;60621;49.576;11.024;2023-06-04T02:32:49;98510.22;;;11.15;52.81
72587;BME280;60621;49.576;11.024;2023-06-04T02:33:53;98499.94;;;11.10;53.07
72587;BME280;60621;49.576;11.024;2023-06-04T02:34:55;98509.34;;;11.07;52.78
72587;BME280;60621;49.576;11.024;2023-06-04T02:35:57;98505.81;;;10.99;53.50
72587;BME280;60621;49.576;11.024;2023-06-04T02:36:59;98510.50;;;11.10;53.33
72587;BME280;60621;49.576;11.024;2023-06-04T02:38:01;98507.75;;;11.02;53.07
72587;BME280;60621;49.576;11.024;2023-06-04T02:39:03;98512.97;;;11.22;52.79
72587;BME280;60621;49.576;11.024;2023-06-04T02:40:04;98507.56;;;11.15;52.89
72587;BME280;60621;49.576;11.024;2023-06-04T02:41:06;98509.91;;;11.20;52.66
72587;BME280;60621;49.576;11.024;2023-06-04T02:42:08;98504.06;;;11.07;52.60
72587;BME280;60621;49.576;11.024;2023-06-04T02:43:10;98509.03;;;10.89;53.39
72587;BME280;60621;49.576;11.024;2023-06-04T02:44:12;98507.97;;;10.94;53.29
72587;BME280;60621;49.576;11.024;2023-06-04T02:45:13;98511.34;;;10.71;53.82
72587;BME280;60621;49.576;11.024;2023-06-04T02:46:15;98507.59;;;10.72;53.88
72587;BME280;60621;49.576;11.024;2023-06-04T02:47:16;98505.78;;;10.76;53.68
72587;BME280;60621;49.576;11.024;2023-06-04T02:48:20;98508.81;;;10.56;54.08
72587;BME280;60621;49.576;11.024;2023-06-04T02:49:21;98506.94;;;10.56;54.11
72587;BME280;60621;49.576;11.024;2023-06-04T02:50:23;98507.91;;;10.48;54.57
72587;BME280;60621;49.576;11.024;2023-06-04T02:51:25;98506.50;;;10.35;55.23
72587;BME280;60621;49.576;11.024;2023-06-04T02:52:26;98515.28;;;10.23;55.02
72587;BME280;60621;49.576;11.024;2023-06-04T02:53:28;98510.56;;;10.13;56.04
72587;BME280;60621;49.576;11.024;2023-06-04T02:54:30;98514.59;;;10.07;55.92
72587;BME280;60621;49.576;11.024;2023-06-04T02:55:31;98510.41;;;10.06;55.76
72587;BME280;60621;49.576;11.024;2023-06-04T02:56:34;98508.13;;;10.04;55.56
72587;BME280;60621;49.576;11.024;2023-06-04T02:57:36;98511.13;;;10.22;55.67
72587;BME280;60621;49.576;11.024;2023-06-04T02:58:48;98509.78;;;10.47;54.88
72587;BME280;60621;49.576;11.024;2023-06-04T02:59:50;98502.00;;;10.55;54.49
72587;BME280;60621;49.576;11.024;2023-06-04T03:00:53;98506.94;;;10.56;54.29
72587;BME280;60621;49.576;11.024;2023-06-04T03:01:55;98511.25;;;10.45;54.82
72587;BME280;60621;49.576;11.024;2023-06-04T03:02:57;98510.22;;;10.49;54.63
72587;BME280;60621;49.576;11.024;2023-06-04T03:04:03;98508.34;;;10.31;54.74
72587;BME280;60621;49.576;11.024;2023-06-04T03:05:07;98507.00;;;10.40;55.25
72587;BME280;60621;49.576;11.024;2023-06-04T03:06:09;98508.47;;;10.38;55.00
72587;BME280;60621;49.576;11.024;2023-06-04T03:07:11;98508.94;;;10.24;55.14
72587;BME280;60621;49.576;11.024;2023-06-04T03:08:13;98501.41;;;10.07;55.86
72587;BME280;60621;49.576;11.024;2023-06-04T03:09:15;98503.06;;;10.15;56.02
72587;BME280;60621;49.576;11.024;2023-06-04T03:10:17;98510.50;;;10.09;55.69
72587;BME280;60621;49.576;11.024;2023-06-04T03:11:18;98510.22;;;10.14;55.89
72587;BME280;60621;49.576;11.024;2023-06-04T03:12:23;98518.44;;;10.29;55.52
72587;BME280;60621;49.576;11.024;2023-06-04T03:13:24;98512.56;;;10.19;55.97
72587;BME280;60621;49.576;11.024;2023-06-04T03:14:26;98514.06;;;10.17;56.14
72587;BME280;60621;49.576;11.024;2023-06-04T03:15:33;98517.63;;;10.09;56.22
72587;BME280;60621;49.576;11.024;2023-06-04T03:16:35;98515.22;;;10.19;55.90
72587;BME280;60621;49.576;11.024;2023-06-04T03:17:41;98515.88;;;10.32;55.25
72587;BME280;60621;49.576;11.024;2023-06-04T03:18:43;98520.81;;;10.34;55.33
72587;BME280;60621;49.576;11.024;2023-06-04T03:19:46;98524.28;;;10.38;55.32
72587;BME280;60621;49.576;11.024;2023-06-04T03:20:49;98522.75;;;10.56;54.92
72587;BME280;60621;49.576;11.024;2023-06-04T03:21:51;98519.91;;;10.45;54.97
72587;BME280;60621;49.576;11.024;2023-06-04T03:22:53;98521.50;;;10.31;55.40
72587;BME280;60621;49.576;11.024;2023-06-04T03:23:55;98517.97;;;10.42;55.35
72587;BME280;60621;49.576;11.024;2023-06-04T03:24:56;98520.31;;;10.28;55.07
72587;BME280;60621;49.576;11.024;2023-06-04T03:25:58;98525.00;;;10.19;55.86
72587;BME280;60621;49.576;11.024;2023-06-04T03:27:00;98527.00;;;10.41;55.91
72587;BME280;60621;49.576;11.024;2023-06-04T03:28:01;98522.75;;;10.37;55.10
72587;BME280;60621;49.576;11.024;2023-06-04T03:29:03;98527.19;;;10.33;55.88
72587;BME280;60621;49.576;11.024;2023-06-04T03:30:05;98522.81;;;10.60;54.98
72587;BME280;60621;49.576;11.024;2023-06-04T03:31:06;98524.47;;;10.68;54.35
72587;BME280;60621;49.576;11.024;2023-06-04T03:32:08;98526.63;;;10.43;55.23
72587;BME280;60621;49.576;11.024;2023-06-04T03:33:10;98526.88;;;10.18;56.31
72587;BME280;60621;49.576;11.024;2023-06-04T03:34:12;98530.47;;;10.26;55.74
72587;BME280;60621;49.576;11.024;2023-06-04T03:35:13;98526.16;;;10.37;55.88
72587;BME280;60621;49.576;11.024;2023-06-04T03:36:15;98533.50;;;10.47;55.57
72587;BME280;60621;49.576;11.024;2023-06-04T03:37:17;98531.03;;;10.35;55.68
72587;BME280;60621;49.576;11.024;2023-06-04T03:38:19;98535.78;;;10.49;55.49
72587;BME280;60621;49.576;11.024;2023-06-04T03:39:21;98532.25;;;10.80;54.72
72587;BME280;60621;49.576;11.024;2023-06-04T03:40:23;98533.94;;;10.92;54.04
72587;BME280;60621;49.576;11.024;2023-06-04T03:41:25;98536.06;;;10.63;54.85
72587;BME280;60621;49.576;11.024;2023-06-04T03:42:27;98536.78;;;10.60;55.31
72587;BME280;60621;49.576;11.024;2023-06-04T03:43:28;98535.06;;;10.91;54.29
72587;BME280;60621;49.576;11.024;2023-06-04T03:44:31;98530.69;;;10.98;53.97
72587;BME280;60621;49.576;11.024;2023-06-04T03:45:32;98538.00;;;10.86;54.16
72587;BME280;60621;49.576;11.024;2023-06-04T03:46:34;98540.63;;;10.86;54.45
72587;BME280;60621;49.576;11.024;2023-06-04T03:47:38;98540.16;;;10.80;53.99
72587;BME280;60621;49.576;11.024;2023-06-04T03:48:41;98533.56;;;10.90;54.24
72587;BME280;60621;49.576;11.024;2023-06-04T03:49:43;98534.31;;;10.90;54.33
72587;BME280;60621;49.576;11.024;2023-06-04T03:50:44;98536.34;;;10.77;54.81
72587;BME280;60621;49.576;11.024;2023-06-04T03:51:47;98529.19;;;10.39;55.88
72587;BME280;60621;49.576;11.024;2023-06-04T03:52:49;98534.19;;;10.25;56.39
72587;BME280;60621;49.576;11.024;2023-06-04T03:53:50;98534.97;;;10.10;57.16
72587;BME280;60621;49.576;11.024;2023-06-04T03:54:52;98541.53;;;10.00;57.19
72587;BME280;60621;49.576;11.024;2023-06-04T03:55:54;98541.28;;;10.05;57.28
72587;BME280;60621;49.576;11.024;2023-06-04T03:56:56;98538.38;;;10.10;57.10
72587;BME280;60621;49.576;11.024;2023-06-04T03:57:58;98544.44;;;9.95;57.62
72587;BME280;60621;49.576;11.024;2023-06-04T03:59:00;98543.25;;;10.08;57.48
72587;BME280;60621;49.576;11.024;2023-06-04T04:00:02;98543.28;;;10.28;57.21
72587;BME280;60621;49.576;11.024;2023-06-04T04:01:05;98540.25;;;10.45;56.56
72587;BME280;60621;49.576;11.024;2023-06-04T04:02:07;98541.28;;;10.40;56.25
72587;BME280;60621;49.576;11.024;2023-06-04T04:03:08;98541.41;;;10.47;56.44
72587;BME280;60621;49.576;11.024;2023-06-04T04:04:11;98537.38;;;10.54;56.07
72587;BME280;60621;49.576;11.024;2023-06-04T04:05:13;98541.00;;;10.65;56.09
72587;BME280;60621;49.576;11.024;2023-06-04T04:06:18;98535.81;;;10.68;55.94
72587;BME280;60621;49.576;11.024;2023-06-04T04:07:19;98528.41;;;10.77;55.62
72587;BME280;60621;49.576;11.024;2023-06-04T04:08:22;98532.09;;;10.92;55.24
72587;BME280;60621;49.576;11.024;2023-06-04T04:09:24;98533.19;;;10.91;55.51
72587;BME280;60621;49.576;11.024;2023-06-04T04:10:26;98531.44;;;10.99;55.43
72587;BME280;60621;49.576;11.024;2023-06-04T04:11:28;98531.44;;;10.99;55.43
72587;BME280;60621;49.576;11.024;2023-06-04T04:12:29;98531.56;;;10.83;55.94
72587;BME280;60621;49.576;11.024;2023-06-04T04:13:31;98530.56;;;10.91;55.97
72587;BME280;60621;49.576;11.024;2023-06-04T04:14:33;98535.53;;;10.96;55.56
72587;BME280;60621;49.576;11.024;2023-06-04T04:15:34;98536.50;;;11.08;55.69
72587;BME280;60621;49.576;11.024;2023-06-04T04:16:36;98535.22;;;11.21;55.00
72587;BME280;60621;49.576;11.024;2023-06-04T04:17:38;98534.34;;;11.13;55.69
72587;BME280;60621;49.576;11.024;2023-06-04T04:18:42;98539.78;;;11.01;55.27
72587;BME280;60621;49.576;11.024;2023-06-04T04:19:44;98534.91;;;11.03;55.00
72587;BME280;60621;49.576;11.024;2023-06-04T04:20:46;98535.03;;;10.87;55.73
72587;BME280;60621;49.576;11.024;2023-06-04T04:21:48;98539.25;;;10.72;56.04
72587;BME280;60621;49.576;11.024;2023-06-04T04:22:50;98541.59;;;10.77;56.09
72587;BME280;60621;49.576;11.024;2023-06-04T04:23:52;98545.84;;;10.82;56.30
72587;BME280;60621;49.576;11.024;2023-06-04T04:24:53;98546.19;;;10.81;56.41
72587;BME280;60621;49.576;11.024;2023-06-04T04:25:55;98543.50;;;10.77;56.96
72587;BME280;60621;49.576;11.024;2023-06-04T04:26:59;98542.72;;;10.76;56.58
72587;BME280;60621;49.576;11.024;2023-06-04T04:28:01;98544.25;;;10.77;56.80
72587;BME280;60621;49.576;11.024;2023-06-04T04:29:03;98543.00;;;10.71;56.45
72587;BME280;60621;49.576;11.024;2023-06-04T04:30:06;98539.13;;;10.65;56.93
72587;BME280;60621;49.576;11.024;2023-06-04T04:31:08;98538.72;;;10.83;56.98
72587;BME280;60621;49.576;11.024;2023-06-04T04:32:10;98539.00;;;11.00;56.44
72587;BME280;60621;49.576;11.024;2023-06-04T04:33:12;98548.22;;;11.10;56.15
72587;BME280;60621;49.576;11.024;2023-06-04T04:34:17;98545.88;;;11.05;56.87
72587;BME280;60621;49.576;11.024;2023-06-04T04:35:18;98539.25;;;11.15;56.42
72587;BME280;60621;49.576;11.024;2023-06-04T04:36:20;98543.09;;;11.40;55.90
72587;BME280;60621;49.576;11.024;2023-06-04T04:37:25;98548.06;;;11.68;55.22
72587;BME280;60621;49.576;11.024;2023-06-04T04:38:27;98544.06;;;11.55;55.15
72587;BME280;60621;49.576;11.024;2023-06-04T04:39:30;98539.19;;;11.57;55.24
72587;BME280;60621;49.576;11.024;2023-06-04T04:40:31;98548.06;;;11.68;55.39
72587;BME280;60621;49.576;11.024;2023-06-04T04:41:33;98548.69;;;11.62;55.78
72587;BME280;60621;49.576;11.024;2023-06-04T04:42:35;98541.22;;;11.67;55.88
72587;BME280;60621;49.576;11.024;2023-06-04T04:43:37;98547.97;;;11.88;55.20
72587;BME280;60621;49.576;11.024;2023-06-04T04:44:40;98549.44;;;11.85;55.33
72587;BME280;60621;49.576;11.024;2023-06-04T04:45:42;98543.50;;;11.92;55.35
72587;BME280;60621;49.576;11.024;2023-06-04T04:46:44;98548.84;;;11.72;55.24
72587;BME280;60621;49.576;11.024;2023-06-04T04:47:46;98546.88;;;11.66;55.84
72587;BME280;60621;49.576;11.024;2023-06-04T04:48:48;98544.97;;;11.89;55.46
72587;BME280;60621;49.576;11.024;2023-06-04T04:49:49;98545.94;;;11.81;55.61
72587;BME280;60621;49.576;11.024;2023-06-04T04:50:52;98546.56;;;11.71;56.30
72587;BME280;60621;49.576;11.024;2023-06-04T04:51:54;98551.34;;;11.62;56.34
72587;BME280;60621;49.576;11.024;2023-06-04T04:52:55;98550.47;;;11.54;56.44
72587;BME280;60621;49.576;11.024;2023-06-04T04:53:58;98554.41;;;11.64;57.11
72587;BME280;60621;49.576;11.024;2023-06-04T04:55:01;98544.28;;;11.69;57.11
72587;BME280;60621;49.576;11.024;2023-06-04T04:56:04;98552.44;;;11.61;57.42
72587;BME280;60621;49.576;11.024;2023-06-04T04:57:08;98544.91;;;11.63;57.65
72587;BME280;60621;49.576;11.024;2023-06-04T04:58:15;98545.09;;;11.73;57.64
72587;BME280;60621;49.576;11.024;2023-06-04T04:59:16;98547.38;;;11.75;57.54
72587;BME280;60621;49.576;11.024;2023-06-04T05:00:18;98551.47;;;11.95;57.48
72587;BME280;60621;49.576;11.024;2023-06-04T05:01:21;98555.84;;;12.11;56.83
72587;BME280;60621;49.576;11.024;2023-06-04T05:02:23;98554.56;;;12.27;56.81
72587;BME280;60621;49.576;11.024;2023-06-04T05:03:24;98557.63;;;12.33;55.95
72587;BME280;60621;49.576;11.024;2023-06-04T05:04:26;98555.44;;;12.39;56.33
72587;BME280;60621;49.576;11.024;2023-06-04T05:05:28;98562.59;;;12.35;56.36
72587;BME280;60621;49.576;11.024;2023-06-04T05:06:29;98556.22;;;12.39;56.27
72587;BME280;60621;49.576;11.024;2023-06-04T05:07:31;98561.84;;;12.38;54.98
72587;BME280;60621;49.576;11.024;2023-06-04T05:08:32;98561.19;;;12.44;55.00
72587;BME280;60621;49.576;11.024;2023-06-04T05:09:34;98563.63;;;12.60;55.20
72587;BME280;60621;49.576;11.024;2023-06-04T05:10:36;98564.63;;;12.48;53.83
72587;BME280;60621;49.576;11.024;2023-06-04T05:11:37;98561.41;;;12.32;54.52
72587;BME280;60621;49.576;11.024;2023-06-04T05:12:39;98562.44;;;12.24;55.11
72587;BME280;60621;49.576;11.024;2023-06-04T05:13:41;98570.47;;;12.31;54.88
72587;BME280;60621;49.576;11.024;2023-06-04T05:14:43;98570.09;;;12.33;54.54
72587;BME280;60621;49.576;11.024;2023-06-04T05:15:44;98570.22;;;12.43;54.47
72587;BME280;60621;49.576;11.024;2023-06-04T05:16:46;98573.78;;;12.54;54.54
72587;BME280;60621;49.576;11.024;2023-06-04T05:17:50;98579.53;;;12.60;53.46
72587;BME280;60621;49.576;11.024;2023-06-04T05:18:53;98582.59;;;12.66;52.76
72587;BME280;60621;49.576;11.024;2023-06-04T05:19:57;98577.72;;;12.68;53.29
72587;BME280;60621;49.576;11.024;2023-06-04T05:21:13;98578.97;;;12.77;52.56
72587;BME280;60621;49.576;11.024;2023-06-04T05:22:14;98580.53;;;12.82;52.02
72587;BME280;60621;49.576;11.024;2023-06-04T05:23:20;98580.22;;;12.91;51.97
72587;BME280;60621;49.576;11.024;2023-06-04T05:24:22;98583.03;;;13.05;50.67
72587;BME280;60621;49.576;11.024;2023-06-04T05:25:23;98580.84;;;13.14;50.10
72587;BME280;60621;49.576;11.024;2023-06-04T05:26:25;98583.66;;;13.25;49.53
72587;BME280;60621;49.576;11.024;2023-06-04T05:27:26;98581.31;;;13.20;49.78
72587;BME280;60621;49.576;11.024;2023-06-04T05:28:29;98586.50;;;13.13;50.07
72587;BME280;60621;49.576;11.024;2023-06-04T05:29:30;98586.09;;;13.07;50.49
72587;BME280;60621;49.576;11.024;2023-06-04T05:30:32;98587.22;;;13.06;50.39